Time;durP1;ratioP1;P1;durP2;ratioP2;P2;SDS_P1;SDS_P2;PMS_P1;PMS_P2;Temp;Humidity;BMP_temperature;BMP_pressure;BME280_temperature;BME280_humidity;BME280_pressure;Samples;Min_cycle;Max_cycle;Signal;HPM_P1;HPM_P2
2024/02/07 00:01:59;;;;;;;7.83;3.57;;;9.40;99.90;;;;;;4962687;28;20207;-74
2024/02/07 00:04:26;;;;;;;5.43;3.93;;;9.40;99.90;;;;;;4961346;28;20295;-74
2024/02/07 00:06:54;;;;;;;4.50;3.37;;;9.40;99.90;;;;;;4961817;28;20290;-75
2024/02/07 00:09:21;;;;;;;3.67;3.30;;;9.40;99.90;;;;;;4958266;28;20243;-75
2024/02/07 00:11:48;;;;;;;6.67;3.50;;;9.40;99.90;;;;;;4958807;28;20210;-75
2024/02/07 00:14:15;;;;;;;6.07;3.40;;;9.40;99.90;;;;;;4965442;28;20297;-75
2024/02/07 00:16:41;;;;;;;7.83;3.83;;;9.40;99.90;;;;;;4970101;28;20298;-75
2024/02/07 00:19:08;;;;;;;4.37;3.83;;;9.40;99.90;;;;;;4970388;28;20241;-74
2024/02/07 00:21:35;;;;;;;6.27;3.50;;;9.40;99.90;;;;;;4969774;28;20223;-75
2024/02/07 00:24:04;;;;;;;6.20;3.27;;;9.40;99.90;;;;;;4957917;28;20648;-74
2024/02/07 00:26:31;;;;;;;5.13;3.53;;;9.40;99.90;;;;;;4962799;28;20251;-74
2024/02/07 00:28:58;;;;;;;4.93;3.00;;;9.40;99.90;;;;;;4969445;28;20270;-72
2024/02/07 00:31:26;;;;;;;5.13;3.00;;;9.40;99.90;;;;;;4958286;28;20214;-73
2024/02/07 00:33:54;;;;;;;8.20;3.53;;;9.40;99.90;;;;;;4951234;28;20207;-73
2024/02/07 00:36:21;;;;;;;4.93;3.20;;;9.40;99.90;;;;;;4951697;28;20428;-73
2024/02/07 00:38:48;;;;;;;3.93;3.40;;;9.40;99.90;;;;;;4969197;28;20303;-73
2024/02/07 00:41:23;;;;;;;4.17;3.40;;;9.40;99.90;;;;;;4967793;28;20297;-73
2024/02/07 00:43:52;;;;;;;4.63;3.00;;;9.40;99.90;;;;;;4969603;28;20587;-73
2024/02/07 00:46:19;;;;;;;4.00;3.40;;;9.40;99.90;;;;;;4969830;28;20213;-73
2024/02/07 00:48:46;;;;;;;6.27;2.93;;;9.40;99.90;;;;;;4969469;28;20241;-74
2024/02/07 00:51:13;;;;;;;5.30;3.03;;;9.40;99.90;;;;;;4953826;28;20270;-74
2024/02/07 00:53:40;;;;;;;6.37;3.43;;;9.40;99.90;;;;;;4958218;28;20992;-74
2024/02/07 00:56:07;;;;;;;3.23;2.63;;;9.30;99.90;;;;;;4969655;28;20261;-74
2024/02/07 00:58:35;;;;;;;3.80;2.90;;;9.40;99.90;;;;;;4969481;28;20234;-74
2024/02/07 01:01:03;;;;;;;4.33;2.90;;;9.30;99.90;;;;;;4969130;28;20211;-74
2024/02/07 01:03:30;;;;;;;4.47;2.80;;;9.30;99.90;;;;;;4969378;28;20234;-74
2024/02/07 01:05:58;;;;;;;3.33;2.93;;;9.30;99.90;;;;;;4969010;28;20215;-74
2024/02/07 01:08:25;;;;;;;4.43;3.00;;;9.30;99.90;;;;;;4968482;28;20320;-74
2024/02/07 01:10:52;;;;;;;5.30;2.63;;;9.30;99.90;;;;;;4968715;28;20223;-75
2024/02/07 01:13:19;;;;;;;3.50;1.40;;;9.30;99.90;;;;;;4969268;28;20211;-74
2024/02/07 01:15:47;;;;;;;1.63;0.70;;;9.10;99.90;;;;;;4968878;28;20242;-75
2024/02/07 01:18:14;;;;;;;0.70;0.50;;;8.90;99.90;;;;;;4969235;28;20242;-75
2024/02/07 01:20:41;;;;;;;0.50;0.50;;;8.60;99.90;;;;;;4965365;28;20191;-75
2024/02/07 01:23:08;;;;;;;0.57;0.30;;;8.50;99.90;;;;;;4958273;28;20269;-74
2024/02/07 01:25:35;;;;;;;0.17;0.17;;;8.40;99.90;;;;;;4968815;28;20293;-74
2024/02/07 01:28:02;;;;;;;0.30;0.30;;;8.30;99.90;;;;;;4968875;28;20239;-74
2024/02/07 01:30:29;;;;;;;0.47;0.20;;;8.20;99.90;;;;;;4968967;28;20317;-74
2024/02/07 01:32:57;;;;;;;1.27;0.23;;;8.20;99.90;;;;;;4968727;28;20293;-74
2024/02/07 01:35:26;;;;;;;0.37;0.30;;;8.20;99.90;;;;;;4968703;28;20297;-74
2024/02/07 01:37:53;;;;;;;1.03;0.40;;;8.00;99.90;;;;;;4968356;28;20626;-75
2024/02/07 01:40:23;;;;;;;0.20;0.20;;;7.90;99.90;;;;;;4968421;28;20685;-75
2024/02/07 01:42:50;;;;;;;0.10;0.10;;;7.80;99.90;;;;;;4968829;28;20213;-74
2024/02/07 01:45:25;;;;;;;0.87;0.37;;;7.70;99.90;;;;;;4968726;28;20317;-75
2024/02/07 01:47:52;;;;;;;0.30;0.20;;;7.70;99.90;;;;;;4967442;28;20226;-76
2024/02/07 01:50:22;;;;;;;0.10;0.10;;;7.70;99.90;;;;;;4956460;28;20206;-74
2024/02/07 01:52:52;;;;;;;0.10;0.10;;;7.70;99.90;;;;;;4967791;28;20217;-74
2024/02/07 01:55:20;;;;;;;0.33;0.20;;;7.60;99.90;;;;;;4968568;28;21001;-74
2024/02/07 01:57:49;;;;;;;0.33;0.20;;;7.60;99.90;;;;;;4968280;28;20210;-74
2024/02/07 02:00:16;;;;;;;1.57;0.30;;;7.60;99.90;;;;;;4962047;28;20924;-74
2024/02/07 02:02:48;;;;;;;1.60;0.60;;;7.60;99.90;;;;;;4948900;28;20214;-73
2024/02/07 02:05:15;;;;;;;0.87;0.57;;;7.60;99.90;;;;;;4949066;28;20306;-74
2024/02/07 02:07:43;;;;;;;2.47;0.33;;;7.60;99.90;;;;;;4965242;28;20215;-74
2024/02/07 02:10:11;;;;;;;1.17;0.40;;;7.60;99.90;;;;;;4968014;28;20632;-74
2024/02/07 02:12:38;;;;;;;0.57;0.30;;;7.80;99.90;;;;;;4968248;28;20206;-74
2024/02/07 02:15:07;;;;;;;0.50;0.40;;;7.80;99.90;;;;;;4968420;28;20214;-74
2024/02/07 02:17:34;;;;;;;1.33;0.30;;;7.60;99.90;;;;;;4968102;28;20298;-74
2024/02/07 02:20:01;;;;;;;1.10;0.50;;;7.40;99.90;;;;;;4968917;28;20293;-73
2024/02/07 02:22:55;;;;;;;0.13;0.13;;;7.10;99.90;;;;;;4954677;28;20792;-74
2024/02/07 02:25:47;;;;;;;0.20;0.20;;;7.00;99.90;;;;;;4955547;28;20290;-74
2024/02/07 02:28:27;;;;;;;0.83;0.30;;;6.90;99.90;;;;;;4955347;28;20226;-74
2024/02/07 02:30:58;;;;;;;1.00;0.30;;;6.80;99.90;;;;;;4972158;28;20257;-74
2024/02/07 02:33:28;;;;;;;1.17;0.20;;;6.70;99.90;;;;;;4972872;28;20286;-73
2024/02/07 02:35:56;;;;;;;2.20;0.30;;;6.70;99.90;;;;;;4974677;28;20207;-74
2024/02/07 02:38:25;;;;;;;1.60;0.30;;;6.70;99.90;;;;;;4974353;28;20210;-74
2024/02/07 02:40:52;;;;;;;0.87;0.20;;;6.70;99.90;;;;;;4960632;28;20215;-73
2024/02/07 02:43:19;;;;;;;0.63;0.57;;;6.70;99.90;;;;;;4955312;28;20221;-73
2024/02/07 02:45:46;;;;;;;3.00;0.63;;;6.70;99.90;;;;;;4955208;28;20221;-73
2024/02/07 02:48:14;;;;;;;1.13;0.40;;;6.70;99.90;;;;;;4954787;28;20231;-73
2024/02/07 02:50:42;;;;;;;0.40;0.40;;;6.60;99.90;;;;;;4966599;28;20302;-73
2024/02/07 02:53:10;;;;;;;0.67;0.30;;;6.70;99.90;;;;;;4969487;28;20243;-73
2024/02/07 02:55:37;;;;;;;0.90;0.33;;;6.70;99.90;;;;;;4954644;28;20298;-73
2024/02/07 02:58:04;;;;;;;1.03;0.40;;;6.60;99.90;;;;;;4954893;28;20243;-73
2024/02/07 03:00:32;;;;;;;0.40;0.37;;;6.60;99.90;;;;;;4964917;28;20207;-73
2024/02/07 03:02:59;;;;;;;1.97;0.40;;;6.60;99.90;;;;;;4978982;28;20675;-73
2024/02/07 03:05:45;;;;;;;0.60;0.50;;;6.60;99.90;;;;;;4974388;28;20306;-73
2024/02/07 03:08:21;;;;;;;0.60;0.27;;;6.60;99.90;;;;;;4973135;28;20214;-74
2024/02/07 03:10:49;;;;;;;2.47;0.43;;;6.60;99.90;;;;;;4961568;28;20219;-73
2024/02/07 03:13:16;;;;;;;0.87;0.30;;;6.60;99.90;;;;;;4974443;28;20217;-73
2024/02/07 03:15:43;;;;;;;1.40;0.37;;;6.50;99.90;;;;;;4974248;28;20214;-73
2024/02/07 03:18:10;;;;;;;1.03;0.20;;;6.60;99.90;;;;;;4973989;28;20579;-73
2024/02/07 03:20:39;;;;;;;1.47;0.30;;;6.50;99.90;;;;;;4973682;28;20206;-73
2024/02/07 03:23:05;;;;;;;1.53;0.40;;;6.30;99.90;;;;;;4973972;28;20333;-74
2024/02/07 03:25:36;;;;;;;2.17;0.50;;;6.40;99.90;;;;;;4969205;28;20294;-74
2024/02/07 03:28:04;;;;;;;2.93;0.47;;;6.20;99.90;;;;;;4955241;29;20311;-74
2024/02/07 03:30:32;;;;;;;3.67;0.43;;;6.00;99.90;;;;;;4953571;28;20725;-73
2024/02/07 03:32:59;;;;;;;1.93;0.43;;;6.00;99.90;;;;;;4950158;28;20584;-74
2024/02/07 03:35:26;;;;;;;1.13;0.53;;;6.00;99.90;;;;;;4950087;28;20720;-74
2024/02/07 03:37:56;;;;;;;0.73;0.30;;;6.10;99.90;;;;;;4956577;28;20211;-74
2024/02/07 03:40:24;;;;;;;1.57;0.63;;;6.10;99.90;;;;;;4964898;28;20594;-74
2024/02/07 03:42:51;;;;;;;0.30;0.30;;;5.90;99.90;;;;;;4959808;28;20210;-74
2024/02/07 03:45:18;;;;;;;0.63;0.43;;;5.80;99.90;;;;;;4959931;28;20199;-74
2024/02/07 03:47:45;;;;;;;0.40;0.20;;;5.60;99.90;;;;;;4968009;28;21038;-75
2024/02/07 03:50:15;;;;;;;0.50;0.40;;;5.60;99.90;;;;;;4965630;28;20326;-74
2024/02/07 03:52:43;;;;;;;0.97;0.60;;;5.50;99.90;;;;;;4950239;28;20216;-74
2024/02/07 03:55:12;;;;;;;0.90;0.50;;;5.50;99.90;;;;;;4961785;28;20206;-74
2024/02/07 03:57:42;;;;;;;2.40;0.40;;;5.50;99.90;;;;;;4962967;28;20286;-74
2024/02/07 04:00:13;;;;;;;0.33;0.33;;;5.50;99.90;;;;;;4970472;28;20277;-74
2024/02/07 04:02:40;;;;;;;1.63;0.23;;;5.30;99.90;;;;;;4971239;28;20788;-74
2024/02/07 04:05:08;;;;;;;1.63;0.53;;;5.30;99.90;;;;;;4969849;28;20305;-74
2024/02/07 04:07:36;;;;;;;2.07;0.63;;;5.20;99.90;;;;;;4969458;28;20298;-74
2024/02/07 04:10:03;;;;;;;0.83;0.40;;;5.10;99.90;;;;;;4969253;28;20239;-75
2024/02/07 05:17:45;;;;;;;3.03;0.60;;;4.20;99.90;;;;;;4966644;28;20244;-74
2024/02/07 05:20:12;;;;;;;1.67;0.73;;;4.20;99.90;;;;;;4950338;29;20212;-74
2024/02/07 05:22:39;;;;;;;1.60;0.40;;;4.10;99.90;;;;;;4949972;28;20303;-75
2024/02/07 05:25:07;;;;;;;2.30;1.00;;;4.20;99.90;;;;;;4969158;28;20230;-74
2024/02/07 05:27:34;;;;;;;2.73;0.50;;;4.20;99.90;;;;;;4968747;28;20247;-74
2024/02/07 05:30:01;;;;;;;1.57;0.53;;;4.20;99.90;;;;;;4968431;28;20730;-75
2024/02/07 05:32:28;;;;;;;3.13;0.90;;;4.20;99.90;;;;;;4968469;28;20206;-75
2024/02/07 05:34:56;;;;;;;1.33;0.87;;;4.30;99.90;;;;;;4968897;28;20211;-75
2024/02/07 05:37:23;;;;;;;3.13;1.20;;;4.20;99.90;;;;;;4968777;28;20213;-75
2024/02/07 05:39:50;;;;;;;1.50;0.40;;;4.30;99.90;;;;;;4968385;28;20209;-74
2024/02/07 05:42:17;;;;;;;3.47;0.53;;;4.10;99.90;;;;;;4969109;28;20210;-74
2024/02/07 05:44:46;;;;;;;3.13;0.70;;;4.20;99.90;;;;;;4968293;28;20250;-75
2024/02/07 05:47:13;;;;;;;1.40;0.60;;;4.20;99.90;;;;;;4969101;28;20634;-75
2024/02/07 05:49:43;;;;;;;4.17;0.73;;;4.10;99.90;;;;;;4968853;28;20326;-74
2024/02/07 05:52:11;;;;;;;2.03;0.80;;;4.20;99.90;;;;;;4968574;28;20238;-75
2024/02/07 05:54:38;;;;;;;1.67;0.70;;;4.20;99.90;;;;;;4962425;28;20214;-75
2024/02/07 05:57:05;;;;;;;1.40;0.43;;;4.20;99.90;;;;;;4953057;28;20211;-75
2024/02/07 05:59:32;;;;;;;3.00;0.60;;;4.10;99.90;;;;;;4985755;28;20297;-75
2024/02/07 06:02:00;;;;;;;2.10;0.83;;;4.20;99.90;;;;;;4968394;28;20302;-75
2024/02/07 06:04:27;;;;;;;1.60;0.60;;;4.20;99.90;;;;;;4968615;28;20241;-75
2024/02/07 06:06:54;;;;;;;1.83;0.60;;;4.20;99.90;;;;;;4968080;28;20302;-75
2024/02/07 06:09:22;;;;;;;2.67;0.80;;;4.10;99.90;;;;;;4967721;28;20710;-75
2024/02/07 06:11:51;;;;;;;2.37;0.77;;;4.20;99.90;;;;;;4967980;28;20310;-74
2024/02/07 06:14:18;;;;;;;0.57;0.57;;;4.20;99.90;;;;;;4968409;28;20214;-75
2024/02/07 06:16:45;;;;;;;2.43;0.80;;;4.20;99.90;;;;;;4968534;28;20627;-75
2024/02/07 06:19:12;;;;;;;1.40;0.90;;;4.10;99.90;;;;;;4968318;28;20776;-75
2024/02/07 06:21:39;;;;;;;3.80;0.80;;;4.10;99.90;;;;;;4967972;28;20301;-74
2024/02/07 06:24:06;;;;;;;1.57;0.73;;;4.20;99.90;;;;;;4968361;28;20306;-74
2024/02/07 06:26:35;;;;;;;2.67;0.50;;;4.20;99.90;;;;;;4968434;28;20242;-75
2024/02/07 06:29:01;;;;;;;4.37;0.80;;;4.20;99.90;;;;;;4968145;28;20218;-74
2024/02/07 06:31:28;;;;;;;3.23;0.60;;;4.20;99.90;;;;;;4968423;28;20214;-75
2024/02/07 06:33:55;;;;;;;3.37;0.80;;;4.30;99.90;;;;;;4968171;28;20306;-74
2024/02/07 06:36:22;;;;;;;2.00;0.87;;;4.30;99.90;;;;;;4968026;28;20285;-75
2024/02/07 06:38:49;;;;;;;3.73;1.20;;;4.30;99.90;;;;;;4968099;28;20293;-75
2024/02/07 06:41:16;;;;;;;3.43;1.10;;;4.30;99.90;;;;;;4968160;28;20301;-75
2024/02/07 06:43:44;;;;;;;3.63;1.13;;;4.30;99.90;;;;;;4967814;28;20302;-74
2024/02/07 06:46:11;;;;;;;2.53;0.80;;;4.40;99.90;;;;;;4968337;28;20298;-74
2024/02/07 06:48:38;;;;;;;3.77;0.90;;;4.40;99.90;;;;;;4970577;28;20302;-75
2024/02/07 06:51:05;;;;;;;4.03;0.90;;;4.40;99.90;;;;;;4987819;28;20267;-74
2024/02/07 06:53:32;;;;;;;3.20;1.03;;;4.40;99.90;;;;;;4983337;28;20285;-75
2024/02/07 06:55:59;;;;;;;2.20;0.53;;;4.40;99.90;;;;;;4987383;28;20244;-75
2024/02/07 06:58:29;;;;;;;2.60;0.73;;;4.50;99.90;;;;;;4987754;28;20253;-75
2024/02/07 07:00:57;;;;;;;4.67;1.10;;;4.40;99.90;;;;;;4987228;28;20213;-75
2024/02/07 07:03:25;;;;;;;2.23;1.10;;;4.40;99.90;;;;;;4987629;28;20218;-75
2024/02/07 07:05:52;;;;;;;4.07;1.07;;;4.40;99.90;;;;;;4988368;28;20214;-74
2024/02/07 07:08:19;;;;;;;3.57;1.00;;;4.40;99.90;;;;;;4990806;28;20213;-75
2024/02/07 07:10:46;;;;;;;2.57;0.77;;;4.40;99.90;;;;;;4983740;28;20760;-74
2024/02/07 07:13:14;;;;;;;6.03;1.47;;;4.40;99.90;;;;;;4971468;28;20667;-75
2024/02/07 07:15:41;;;;;;;4.70;1.07;;;4.40;99.90;;;;;;4971640;28;20326;-75
2024/02/07 07:18:09;;;;;;;3.67;1.00;;;4.40;99.90;;;;;;4971264;28;20261;-74
2024/02/07 07:20:36;;;;;;;2.27;1.20;;;4.50;99.90;;;;;;4971071;28;20302;-75
2024/02/07 07:23:03;;;;;;;6.47;1.03;;;4.40;99.90;;;;;;4967152;28;20334;-74
2024/02/07 07:25:30;;;;;;;6.37;0.90;;;4.40;99.90;;;;;;4952035;28;20286;-74
2024/02/07 07:27:57;;;;;;;6.33;1.37;;;4.50;99.90;;;;;;4951456;29;20298;-75
2024/02/07 07:30:24;;;;;;;2.50;1.27;;;4.50;99.90;;;;;;4951496;29;20337;-75
2024/02/07 07:32:51;;;;;;;3.10;1.27;;;4.50;99.90;;;;;;4968960;28;20246;-74
2024/02/07 07:35:19;;;;;;;3.07;1.13;;;4.50;99.90;;;;;;4970927;28;20302;-74
2024/02/07 07:37:46;;;;;;;3.70;1.30;;;4.60;99.90;;;;;;4970740;28;20337;-74
2024/02/07 07:40:13;;;;;;;8.17;1.30;;;4.60;99.90;;;;;;4970950;28;20241;-74
2024/02/07 07:42:40;;;;;;;5.37;1.57;;;4.60;99.90;;;;;;4970938;28;20269;-74
2024/02/07 07:45:07;;;;;;;3.07;1.10;;;4.60;99.90;;;;;;4970455;28;20262;-74
2024/02/07 07:47:34;;;;;;;4.47;1.23;;;4.60;99.90;;;;;;4970835;28;20296;-74
2024/02/07 07:50:01;;;;;;;3.90;1.50;;;4.60;99.90;;;;;;4970123;28;20317;-75
2024/02/07 07:52:29;;;;;;;4.53;1.27;;;4.70;99.90;;;;;;4970580;28;20718;-74
2024/02/07 07:54:56;;;;;;;4.67;1.37;;;4.70;99.90;;;;;;4970182;28;20736;-75
2024/02/07 07:57:23;;;;;;;9.50;1.80;;;4.70;99.90;;;;;;4970705;28;21047;-74
2024/02/07 07:59:50;;;;;;;3.23;1.47;;;4.60;99.90;;;;;;4970360;28;20677;-74
2024/02/07 08:02:17;;;;;;;5.33;1.70;;;4.70;99.90;;;;;;4970607;28;20297;-75
2024/02/07 08:04:44;;;;;;;7.07;1.43;;;4.70;99.90;;;;;;4970309;28;20325;-75
2024/02/07 08:07:10;;;;;;;6.87;1.63;;;4.70;99.90;;;;;;4969921;28;20247;-74
2024/02/07 08:09:41;;;;;;;5.40;1.33;;;4.70;99.90;;;;;;4969794;28;20318;-74
2024/02/07 08:12:10;;;;;;;5.50;2.23;;;4.80;99.90;;;;;;4970259;28;20202;-74
2024/02/07 08:14:37;;;;;;;6.50;1.80;;;4.70;99.90;;;;;;4970157;28;20211;-74
2024/02/07 08:17:04;;;;;;;5.63;1.80;;;4.80;99.90;;;;;;4969927;28;20297;-74
2024/02/07 08:19:31;;;;;;;4.70;1.40;;;4.80;99.90;;;;;;4970193;28;20301;-74
2024/02/07 08:21:58;;;;;;;3.63;1.40;;;4.80;99.90;;;;;;4969222;28;20352;-74
2024/02/07 08:24:25;;;;;;;3.97;2.00;;;4.80;99.90;;;;;;4955386;28;20298;-74
2024/02/07 08:26:53;;;;;;;5.83;1.47;;;4.90;99.90;;;;;;4950632;29;20342;-74
2024/02/07 08:29:20;;;;;;;7.57;1.80;;;4.90;99.90;;;;;;4969306;28;20207;-74
2024/02/07 08:31:47;;;;;;;5.23;1.60;;;4.90;99.90;;;;;;4969505;28;20235;-73
2024/02/07 08:34:15;;;;;;;5.47;1.33;;;4.90;99.90;;;;;;4970140;28;20221;-74
2024/02/07 08:36:41;;;;;;;5.97;1.90;;;4.90;99.90;;;;;;4969084;28;20986;-74
2024/02/07 08:39:08;;;;;;;5.00;1.57;;;4.90;99.90;;;;;;4969966;28;20302;-74
2024/02/07 08:41:35;;;;;;;6.70;2.40;;;4.90;99.90;;;;;;4969597;28;20254;-74
2024/02/07 08:44:04;;;;;;;5.10;1.30;;;4.90;99.90;;;;;;4969715;28;20298;-74
2024/02/07 08:46:30;;;;;;;8.87;1.70;;;5.00;99.90;;;;;;4969748;28;20297;-74
2024/02/07 08:48:57;;;;;;;5.17;1.47;;;5.00;99.90;;;;;;4969597;28;20341;-74
2024/02/07 08:51:24;;;;;;;5.43;1.67;;;5.00;99.90;;;;;;4969464;28;20321;-74
2024/02/07 08:53:51;;;;;;;5.40;1.57;;;5.00;99.90;;;;;;4959068;28;20247;-74
2024/02/07 08:56:18;;;;;;;5.67;1.63;;;5.00;99.90;;;;;;4950340;28;20298;-74
2024/02/07 08:58:45;;;;;;;6.53;1.83;;;5.10;99.90;;;;;;4950178;28;20274;-74
2024/02/07 09:01:13;;;;;;;6.37;1.60;;;5.10;99.90;;;;;;4950258;28;20235;-74
2024/02/07 09:03:41;;;;;;;3.53;1.40;;;5.10;99.90;;;;;;4960079;28;20207;-74
2024/02/07 09:06:10;;;;;;;5.87;1.93;;;5.10;99.90;;;;;;4969187;28;20225;-74
2024/02/07 09:08:36;;;;;;;7.23;1.73;;;5.10;99.90;;;;;;4969261;28;20234;-74
2024/02/07 09:11:04;;;;;;;4.73;1.33;;;5.20;99.90;;;;;;4969243;28;20617;-74
2024/02/07 09:13:30;;;;;;;5.07;1.40;;;5.10;99.90;;;;;;4969373;28;20298;-73
2024/02/07 09:15:57;;;;;;;3.13;1.13;;;5.20;99.90;;;;;;4969251;28;20214;-74
2024/02/07 09:18:25;;;;;;;7.30;1.27;;;5.20;99.90;;;;;;4969465;28;20285;-74
2024/02/07 09:20:52;;;;;;;2.40;1.20;;;5.20;99.90;;;;;;4969096;28;20306;-74
2024/02/07 09:23:19;;;;;;;5.27;2.20;;;5.20;99.90;;;;;;4968862;28;20342;-74
2024/02/07 09:25:46;;;;;;;5.80;1.57;;;5.20;99.90;;;;;;4969011;28;20301;-74
2024/02/07 09:28:13;;;;;;;5.47;1.37;;;5.20;99.90;;;;;;4968567;28;20297;-74
2024/02/07 09:30:40;;;;;;;8.13;1.50;;;5.20;99.90;;;;;;4968510;28;20238;-74
2024/02/07 09:33:07;;;;;;;4.83;1.47;;;5.20;99.90;;;;;;4969286;28;20218;-74
2024/02/07 09:35:35;;;;;;;4.23;1.60;;;5.20;99.90;;;;;;4969068;28;20238;-74
2024/02/07 09:38:02;;;;;;;4.93;2.00;;;5.30;99.90;;;;;;4968364;28;20265;-74
2024/02/07 09:40:29;;;;;;;6.83;1.83;;;5.30;99.90;;;;;;4968343;28;20390;-73
2024/02/07 09:42:56;;;;;;;6.20;2.10;;;5.30;99.90;;;;;;4968449;28;20213;-73
2024/02/07 09:45:25;;;;;;;6.30;1.80;;;5.40;99.90;;;;;;4969062;28;20290;-74
2024/02/07 09:48:01;;;;;;;7.53;2.37;;;5.40;99.90;;;;;;4968647;28;20217;-73
2024/02/07 09:50:28;;;;;;;6.23;2.23;;;5.50;99.90;;;;;;4968224;28;20277;-73
2024/02/07 09:52:57;;;;;;;4.80;2.03;;;5.50;99.90;;;;;;4965508;28;20864;-74
2024/02/07 09:55:24;;;;;;;8.47;1.90;;;5.50;99.90;;;;;;4949021;29;20629;-74
2024/02/07 09:57:52;;;;;;;5.90;1.77;;;5.60;99.90;;;;;;4949211;28;20305;-74
2024/02/07 10:00:20;;;;;;;6.17;2.03;;;5.60;99.90;;;;;;4962183;28;20211;-74
2024/02/07 10:02:50;;;;;;;8.63;2.43;;;5.60;99.90;;;;;;4968370;28;20297;-74
2024/02/07 10:05:20;;;;;;;7.10;2.23;;;5.70;99.90;;;;;;4968191;28;20238;-74
2024/02/07 10:07:52;;;;;;;7.70;2.07;;;5.70;99.90;;;;;;4967619;28;20214;-74
2024/02/07 10:10:21;;;;;;;6.67;2.17;;;5.70;99.90;;;;;;4967701;28;20713;-74
2024/02/07 10:12:48;;;;;;;7.83;2.00;;;5.70;99.90;;;;;;4968370;28;20222;-74
2024/02/07 10:15:15;;;;;;;6.63;1.97;;;5.60;99.90;;;;;;4968453;28;20309;-74
2024/02/07 10:17:42;;;;;;;8.23;2.07;;;5.60;99.90;;;;;;4968042;28;20246;-74
2024/02/07 10:20:10;;;;;;;5.37;1.97;;;5.60;99.90;;;;;;4968138;28;20206;-74
2024/02/07 10:22:40;;;;;;;8.43;3.07;;;5.60;99.90;;;;;;4967553;28;20242;-73
2024/02/07 10:25:12;;;;;;;4.30;1.60;;;5.60;99.90;;;;;;4968636;28;20219;-74
2024/02/07 10:27:40;;;;;;;2.67;1.33;;;5.70;99.90;;;;;;4967802;28;20294;-74
2024/02/07 10:30:10;;;;;;;7.90;2.07;;;5.70;99.90;;;;;;4967971;28;21056;-74
2024/02/07 10:32:38;;;;;;;8.10;1.87;;;5.90;99.90;;;;;;4968217;28;20302;-74
2024/02/07 10:35:10;;;;;;;7.63;1.83;;;6.00;99.90;;;;;;4967709;28;20241;-74
2024/02/07 10:37:41;;;;;;;5.93;2.27;;;6.00;99.90;;;;;;4967972;28;20221;-74
2024/02/07 10:40:09;;;;;;;8.17;1.93;;;6.00;99.90;;;;;;4985273;28;20220;-74
2024/02/07 10:42:36;;;;;;;7.33;2.23;;;6.10;99.90;;;;;;4991474;28;20210;-74
2024/02/07 10:45:09;;;;;;;5.77;2.10;;;6.00;99.90;;;;;;4991221;28;20213;-74
2024/02/07 10:47:38;;;;;;;6.13;2.17;;;6.00;99.90;;;;;;4991277;28;20288;-74
2024/02/07 10:50:06;;;;;;;6.73;2.10;;;5.90;99.90;;;;;;4990914;28;20236;-74
2024/02/07 10:52:33;;;;;;;6.10;1.77;;;6.00;99.90;;;;;;4990565;28;20724;-74
2024/02/07 10:55:00;;;;;;;7.27;1.93;;;6.00;99.90;;;;;;4971275;28;20303;-74
2024/02/07 10:57:32;;;;;;;8.00;1.87;;;6.10;99.90;;;;;;4971745;28;20642;-75
2024/02/07 11:00:00;;;;;;;8.53;2.20;;;6.00;99.90;;;;;;4971348;28;20746;-74
2024/02/07 11:02:29;;;;;;;6.03;1.80;;;6.10;99.90;;;;;;4971455;28;20326;-74
2024/02/07 11:04:56;;;;;;;6.10;1.77;;;6.10;99.90;;;;;;4970924;28;20306;-74
2024/02/07 11:07:23;;;;;;;8.00;2.03;;;6.00;99.90;;;;;;4971128;28;20323;-74
2024/02/07 11:09:50;;;;;;;6.20;1.93;;;6.00;99.90;;;;;;4970729;28;20281;-74
2024/02/07 11:12:17;;;;;;;4.90;1.60;;;6.10;99.90;;;;;;4971207;28;20329;-74
2024/02/07 11:14:45;;;;;;;5.03;1.70;;;6.30;99.90;;;;;;4970839;28;20981;-74
2024/02/07 11:17:13;;;;;;;6.07;1.90;;;6.40;99.90;;;;;;4970932;28;20309;-75
2024/02/07 11:19:42;;;;;;;6.33;1.90;;;6.50;99.90;;;;;;4971245;28;20567;-75
2024/02/07 11:22:14;;;;;;;2.73;1.70;;;6.80;99.90;;;;;;4970654;28;20274;-74
2024/02/07 11:24:43;;;;;;;6.90;2.13;;;6.80;99.90;;;;;;4954254;28;20761;-75
2024/02/07 11:27:11;;;;;;;7.67;2.00;;;6.90;99.90;;;;;;4951838;28;20238;-75
2024/02/07 11:29:38;;;;;;;5.53;1.73;;;7.10;99.90;;;;;;4954318;28;20907;-75
2024/02/07 11:32:06;;;;;;;3.00;1.87;;;7.30;99.90;;;;;;4971230;28;20230;-75
2024/02/07 11:34:37;;;;;;;3.53;1.33;;;7.30;99.90;;;;;;4971255;28;20607;-75
2024/02/07 11:37:08;;;;;;;4.33;1.60;;;7.30;99.90;;;;;;4970562;28;20203;-74
2024/02/07 11:39:39;;;;;;;7.73;2.00;;;7.30;99.90;;;;;;4970682;28;20226;-75
2024/02/07 11:42:14;;;;;;;5.70;1.70;;;7.40;99.90;;;;;;4971210;28;20639;-75
2024/02/07 11:44:55;;;;;;;5.90;1.77;;;7.60;99.90;;;;;;4970494;28;20210;-75
2024/02/07 11:47:26;;;;;;;4.10;1.60;;;7.70;99.90;;;;;;4970701;28;20198;-75
2024/02/07 11:49:57;;;;;;;4.43;1.60;;;7.70;99.90;;;;;;4970443;28;20676;-75
2024/02/07 11:52:36;;;;;;;7.50;1.70;;;7.90;99.90;;;;;;4960300;28;20239;-75
2024/02/07 11:55:04;;;;;;;7.03;1.73;;;7.90;99.90;;;;;;4951327;29;20282;-75
2024/02/07 11:57:32;;;;;;;7.57;1.80;;;7.90;99.90;;;;;;4951258;29;20207;-74
2024/02/07 12:00:03;;;;;;;5.07;1.63;;;7.80;99.90;;;;;;4951277;28;20234;-75
2024/02/07 12:02:30;;;;;;;5.97;1.73;;;7.80;99.90;;;;;;4951283;29;20294;-75
2024/02/07 12:04:58;;;;;;;7.00;1.97;;;7.40;99.90;;;;;;4950869;28;20207;-75
2024/02/07 12:07:28;;;;;;;7.53;2.10;;;7.30;99.90;;;;;;4951021;28;20290;-75
2024/02/07 12:09:57;;;;;;;7.30;1.73;;;7.30;99.90;;;;;;4950823;28;20640;-75
2024/02/07 12:12:24;;;;;;;4.90;1.43;;;7.20;99.90;;;;;;4954465;28;20347;-75
2024/02/07 12:14:51;;;;;;;7.23;1.83;;;7.10;99.90;;;;;;4970517;28;20301;-74
2024/02/07 12:17:18;;;;;;;2.87;1.33;;;7.10;99.90;;;;;;4970472;28;20297;-74
2024/02/07 12:19:46;;;;;;;8.60;2.03;;;7.00;99.90;;;;;;4969923;28;20199;-74
2024/02/07 12:22:19;;;;;;;5.43;1.67;;;7.10;99.90;;;;;;4970033;28;20234;-74
2024/02/07 12:24:47;;;;;;;6.37;1.60;;;7.00;99.90;;;;;;4970025;28;20293;-74
2024/02/07 12:27:15;;;;;;;6.13;1.67;;;7.00;99.90;;;;;;4969890;28;20353;-75
2024/02/07 12:29:49;;;;;;;4.30;1.50;;;7.10;99.90;;;;;;4969536;28;20211;-75
2024/02/07 12:32:17;;;;;;;5.40;1.40;;;7.20;99.90;;;;;;4970083;28;20311;-74
2024/02/07 12:34:44;;;;;;;2.33;1.20;;;7.20;99.90;;;;;;4970016;28;20294;-74
2024/02/07 12:37:13;;;;;;;5.17;1.40;;;7.10;99.90;;;;;;4969641;28;20211;-74
2024/02/07 12:39:40;;;;;;;4.93;1.40;;;7.10;99.90;;;;;;4969548;28;20298;-74
2024/02/07 12:42:16;;;;;;;5.13;1.80;;;6.90;99.90;;;;;;4969690;28;20566;-74
2024/02/07 12:44:43;;;;;;;4.67;1.80;;;6.80;99.90;;;;;;4969778;28;20300;-74
2024/02/07 12:47:13;;;;;;;5.70;1.67;;;6.70;99.90;;;;;;4969872;28;20306;-74
2024/02/07 12:49:40;;;;;;;5.07;1.33;;;6.60;99.90;;;;;;4969527;28;20242;-74
2024/02/07 12:52:08;;;;;;;4.17;1.57;;;6.60;99.90;;;;;;4969348;28;20302;-74
2024/02/07 12:54:35;;;;;;;5.43;1.23;;;6.60;99.90;;;;;;4953341;28;20625;-74
2024/02/07 12:57:03;;;;;;;5.23;1.60;;;6.60;99.90;;;;;;4949878;28;20247;-74
2024/02/07 12:59:33;;;;;;;6.87;1.97;;;6.60;99.90;;;;;;4950293;29;20212;-75
2024/02/07 13:02:02;;;;;;;2.30;1.27;;;6.60;99.90;;;;;;4949874;28;20223;-75
2024/02/07 13:04:29;;;;;;;3.33;1.60;;;6.50;99.90;;;;;;4949344;28;20313;-74
2024/02/07 13:06:57;;;;;;;5.80;1.60;;;6.50;99.90;;;;;;4949370;29;20242;-74
2024/02/07 13:09:24;;;;;;;5.13;1.27;;;6.50;99.90;;;;;;4959162;28;20338;-75
2024/02/07 13:11:50;;;;;;;2.80;1.17;;;6.50;99.90;;;;;;4968831;28;20321;-75
2024/02/07 13:14:18;;;;;;;5.40;1.50;;;6.60;99.90;;;;;;4969230;28;20238;-74
2024/02/07 13:16:46;;;;;;;4.70;1.50;;;6.60;99.90;;;;;;4968754;28;20297;-74
2024/02/07 13:19:13;;;;;;;9.77;1.90;;;6.60;99.90;;;;;;4969288;28;20293;-74
2024/02/07 13:21:41;;;;;;;8.93;1.67;;;6.70;99.90;;;;;;4968640;28;20222;-75
2024/02/07 13:24:14;;;;;;;6.30;1.73;;;6.70;99.90;;;;;;4972518;28;20666;-74
2024/02/07 13:26:41;;;;;;;4.83;1.40;;;6.60;99.90;;;;;;4968851;28;20205;-74
2024/02/07 13:29:08;;;;;;;3.23;1.60;;;6.60;99.90;;;;;;4968759;28;20278;-75
2024/02/07 13:31:35;;;;;;;7.43;2.10;;;6.50;99.90;;;;;;4968818;28;20227;-74
2024/02/07 13:34:04;;;;;;;7.00;1.60;;;6.60;99.90;;;;;;4968657;28;20218;-75
2024/02/07 13:36:30;;;;;;;5.13;1.43;;;6.60;99.90;;;;;;4956493;28;20733;-74
2024/02/07 13:38:57;;;;;;;3.83;1.30;;;6.60;99.90;;;;;;4968283;28;20211;-74
2024/02/07 13:41:24;;;;;;;4.10;1.20;;;6.60;99.90;;;;;;4968094;28;20242;-74
2024/02/07 13:43:51;;;;;;;4.73;1.30;;;6.50;99.90;;;;;;4954474;28;20687;-75
2024/02/07 13:46:18;;;;;;;3.83;1.40;;;6.60;99.90;;;;;;4963656;28;20294;-74
2024/02/07 13:48:45;;;;;;;3.03;1.60;;;6.60;99.90;;;;;;4968458;28;20238;-74
2024/02/07 13:51:14;;;;;;;3.43;1.37;;;6.60;99.90;;;;;;4968070;28;20302;-74
2024/02/07 13:53:41;;;;;;;2.33;1.30;;;6.70;99.90;;;;;;4968150;28;20206;-74
2024/02/07 13:56:08;;;;;;;2.93;1.67;;;6.60;99.90;;;;;;4967463;28;20298;-74
2024/02/07 13:58:35;;;;;;;3.83;1.40;;;6.60;99.90;;;;;;4963403;28;20235;-74
2024/02/07 14:01:02;;;;;;;7.33;1.60;;;6.40;99.90;;;;;;4958068;28;20302;-74
2024/02/07 14:03:29;;;;;;;5.47;1.50;;;6.50;99.90;;;;;;4959175;28;20224;-74
2024/02/07 14:05:56;;;;;;;3.17;1.33;;;6.50;99.90;;;;;;4958844;28;20243;-74
2024/02/07 14:08:24;;;;;;;3.10;1.33;;;6.50;99.90;;;;;;4958394;28;20298;-74